createdAt,value
2018-06-02T00:00:41.350Z,24.92
2018-06-02T00:01:41.377Z,24.97
2018-06-02T00:02:41.404Z,24.89
2018-06-02T00:03:41.442Z,24.97
2018-06-02T00:04:41.460Z,25.00
2018-06-02T00:05:41.487Z,24.94
2018-06-02T00:06:41.515Z,24.94
2018-06-02T00:07:41.543Z,24.93
2018-06-02T00:08:41.570Z,24.99
2018-06-02T00:09:41.598Z,24.96
2018-06-02T00:10:41.633Z,25.01
2018-06-02T00:11:41.653Z,24.96
2018-06-02T00:12:41.681Z,24.97
2018-06-02T00:13:41.719Z,24.97
2018-06-02T00:14:41.736Z,24.92
2018-06-02T00:15:41.783Z,25.04
2018-06-02T00:16:41.834Z,25.00
2018-06-02T00:17:41.822Z,24.99
2018-06-02T00:18:41.849Z,24.99
2018-06-02T00:19:41.876Z,25.04
2018-06-02T00:20:41.902Z,24.96
2018-06-02T00:21:41.934Z,24.92
2018-06-02T00:22:41.958Z,24.94
2018-06-02T00:23:41.986Z,24.89
2018-06-02T00:24:42.029Z,24.93
2018-06-02T00:25:42.040Z,24.93
2018-06-02T00:26:42.069Z,24.94
2018-06-02T00:27:42.097Z,24.88
2018-06-02T00:28:42.125Z,24.96
2018-06-02T00:29:42.152Z,24.93
2018-06-02T00:30:42.179Z,24.97
2018-06-02T00:31:42.207Z,24.89
2018-06-02T00:32:42.234Z,24.85
2018-06-02T00:33:42.311Z,24.88
2018-06-02T00:34:42.290Z,24.93
2018-06-02T00:35:42.318Z,24.93
2018-06-02T00:36:42.345Z,24.93
2018-06-02T00:37:42.374Z,24.85
2018-06-02T00:38:42.401Z,24.88
2018-06-02T00:39:42.429Z,24.86
2018-06-02T00:40:42.456Z,24.89
2018-06-02T00:41:42.484Z,24.79
2018-06-02T00:42:42.512Z,24.89
2018-06-02T00:43:42.540Z,24.84
2018-06-02T00:44:42.567Z,24.84
2018-06-02T00:45:42.596Z,24.88
2018-06-02T00:46:42.622Z,24.92
2018-06-02T00:47:42.677Z,24.84
2018-06-02T00:48:42.677Z,24.85
2018-06-02T00:49:42.729Z,24.92
2018-06-02T00:50:42.733Z,24.82
2018-06-02T00:51:42.761Z,24.85
2018-06-02T00:52:42.788Z,24.88
2018-06-02T00:53:42.816Z,24.92
2018-06-02T00:54:42.844Z,24.88
2018-06-02T00:55:42.901Z,24.96
2018-06-02T00:56:42.899Z,24.84
2018-06-02T00:57:42.927Z,24.89
2018-06-02T00:58:42.959Z,24.92
2018-06-02T00:59:42.982Z,24.88
2018-06-02T01:00:43.013Z,24.88
2018-06-02T01:01:43.038Z,24.89
2018-06-02T01:02:43.066Z,24.88
2018-06-02T01:03:43.098Z,24.88
2018-06-02T01:04:43.123Z,24.93
2018-06-02T01:05:43.186Z,24.92
2018-06-02T01:06:43.177Z,24.85
2018-06-02T01:07:43.204Z,24.88
2018-06-02T01:08:43.231Z,24.85
2018-06-02T01:09:43.297Z,24.86
2018-06-02T01:10:43.287Z,24.79
2018-06-02T01:11:43.315Z,24.84
2018-06-02T01:12:43.378Z,24.84
2018-06-02T01:13:43.370Z,24.86
2018-06-02T01:14:43.398Z,24.92
2018-06-02T01:15:43.433Z,24.84
2018-06-02T01:16:43.456Z,24.82
2018-06-02T01:17:43.487Z,24.84
2018-06-02T01:18:43.509Z,24.85
2018-06-02T01:19:43.541Z,24.88
2018-06-02T01:20:43.595Z,24.84
2018-06-02T01:21:43.630Z,24.79
2018-06-02T01:22:43.619Z,24.81
2018-06-02T01:23:43.649Z,24.79
2018-06-02T01:24:43.674Z,24.84
2018-06-02T01:25:43.701Z,24.93
2018-06-02T01:26:43.730Z,24.89
2018-06-02T01:27:43.802Z,24.84
2018-06-02T01:28:43.785Z,24.82
2018-06-02T01:29:43.813Z,24.84
2018-06-02T01:30:43.841Z,24.82
2018-06-02T01:31:43.905Z,24.84
2018-06-02T01:32:43.933Z,24.82
2018-06-02T01:33:43.924Z,24.84
2018-06-02T01:34:43.952Z,24.84
2018-06-02T01:35:43.980Z,24.84
2018-06-02T01:36:44.006Z,24.88
2018-06-02T01:37:44.036Z,24.89
2018-06-02T01:38:44.062Z,24.85
2018-06-02T01:39:44.094Z,24.84
2018-06-02T01:40:44.117Z,24.81
2018-06-02T01:41:44.145Z,24.84
2018-06-02T01:42:44.174Z,24.81
2018-06-02T01:43:44.201Z,24.81
2018-06-02T01:44:44.228Z,24.85
2018-06-02T01:45:44.256Z,24.84
2018-06-02T01:46:44.284Z,24.89
2018-06-02T01:47:44.312Z,24.88
2018-06-02T01:48:44.339Z,24.88
2018-06-02T01:49:44.367Z,24.86
2018-06-02T01:50:44.394Z,24.89
2018-06-02T01:51:44.424Z,24.88
2018-06-02T01:52:44.456Z,24.94
2018-06-02T01:53:44.479Z,24.93
2018-06-02T01:54:44.508Z,24.85
2018-06-02T01:55:44.533Z,24.84
2018-06-02T01:56:44.561Z,24.88
2018-06-02T01:57:44.590Z,24.94
2018-06-02T01:58:44.616Z,24.86
2018-06-02T01:59:44.644Z,24.94
2018-06-02T02:00:44.671Z,24.85
2018-06-02T02:01:44.698Z,24.92
2018-06-02T02:02:44.727Z,24.94
2018-06-02T02:03:44.755Z,25.00
2018-06-02T02:04:44.782Z,25.00
2018-06-02T02:05:44.810Z,24.89
2018-06-02T02:06:44.838Z,25.01
2018-06-02T02:07:44.865Z,24.92
2018-06-02T02:08:44.892Z,24.93
2018-06-02T02:09:44.920Z,25.00
2018-06-02T02:10:44.955Z,24.93
2018-06-02T02:11:44.977Z,24.99
2018-06-02T02:12:45.003Z,24.97
2018-06-02T02:13:45.032Z,24.97
2018-06-02T02:14:45.062Z,24.94
2018-06-02T02:15:45.090Z,24.99
2018-06-02T02:16:45.117Z,24.96
2018-06-02T02:17:45.157Z,25.09
2018-06-02T02:18:45.170Z,25.00
2018-06-02T02:19:45.198Z,25.04
2018-06-02T02:20:45.225Z,24.99
2018-06-02T02:21:45.255Z,25.01
2018-06-02T02:22:45.280Z,24.99
2018-06-02T02:23:45.313Z,25.09
2018-06-02T02:24:45.335Z,25.09
2018-06-02T02:25:45.364Z,25.07
2018-06-02T02:26:45.391Z,25.07
2018-06-02T02:27:45.420Z,25.07
2018-06-02T02:28:45.446Z,25.14
2018-06-02T02:29:45.474Z,25.09
2018-06-02T02:30:45.502Z,25.14
2018-06-02T02:31:45.530Z,25.09
2018-06-02T02:32:45.558Z,25.12
2018-06-02T02:33:45.586Z,25.15
2018-06-02T02:34:45.613Z,25.21
2018-06-02T02:35:45.642Z,25.24
2018-06-02T02:36:45.669Z,25.26
2018-06-02T02:37:45.696Z,25.21
2018-06-02T02:38:45.724Z,25.15
2018-06-02T02:39:45.753Z,25.22
2018-06-02T02:40:45.796Z,25.19
2018-06-02T02:41:45.807Z,25.19
2018-06-02T02:42:45.838Z,25.24
2018-06-02T02:43:45.864Z,25.26
2018-06-02T02:44:45.890Z,25.22
2018-06-02T02:45:45.919Z,25.40
2018-06-02T02:46:45.946Z,25.31
2018-06-02T02:47:45.976Z,25.34
2018-06-02T02:48:46.001Z,25.43
2018-06-02T02:49:46.033Z,25.43
2018-06-02T02:50:46.058Z,25.43
2018-06-02T02:51:46.086Z,25.46
2018-06-02T02:52:46.113Z,25.49
2018-06-02T02:53:46.140Z,25.55
2018-06-02T02:54:46.168Z,25.59
2018-06-02T02:55:46.198Z,25.58
2018-06-02T02:56:46.224Z,25.58
2018-06-02T02:57:46.252Z,25.62
2018-06-02T02:58:46.279Z,25.67
2018-06-02T02:59:46.309Z,25.73
2018-06-02T03:00:46.335Z,25.73
2018-06-02T03:01:46.364Z,25.80
2018-06-02T03:02:46.392Z,25.78
2018-06-02T03:03:46.419Z,25.74
2018-06-02T03:04:46.446Z,25.86
2018-06-02T03:05:46.497Z,25.91
2018-06-02T03:06:46.502Z,25.91
2018-06-02T03:07:46.531Z,25.83
2018-06-02T03:08:46.558Z,25.92
2018-06-02T03:09:46.585Z,25.91
2018-06-02T03:10:46.615Z,25.93
2018-06-02T03:11:46.642Z,25.95
2018-06-02T03:12:46.670Z,25.88
2018-06-02T03:13:46.698Z,25.95
2018-06-02T03:14:46.726Z,26.01
2018-06-02T03:15:46.754Z,25.92
2018-06-02T03:16:46.829Z,26.01
2018-06-02T03:17:46.809Z,25.99
2018-06-02T03:18:46.837Z,26.11
2018-06-02T03:19:46.865Z,26.11
2018-06-02T03:20:46.893Z,25.99
2018-06-02T03:21:46.924Z,26.01
2018-06-02T03:22:46.949Z,26.06
2018-06-02T03:23:46.980Z,26.04
2018-06-02T03:24:47.014Z,26.03
2018-06-02T03:25:47.033Z,26.07
2018-06-02T03:26:47.082Z,26.04
2018-06-02T03:27:47.093Z,25.95
2018-06-02T03:28:47.119Z,26.01
2018-06-02T03:29:47.144Z,26.03
2018-06-02T03:30:47.173Z,25.96
2018-06-02T03:31:47.206Z,25.99
2018-06-02T03:32:47.229Z,25.98
2018-06-02T03:33:47.284Z,26.04
2018-06-02T03:34:47.288Z,26.03
2018-06-02T03:35:47.313Z,26.06
2018-06-02T03:36:47.340Z,26.01
2018-06-02T03:37:47.368Z,26.08
2018-06-02T03:38:47.399Z,26.01
2018-06-02T03:39:47.425Z,26.01
2018-06-02T03:40:47.455Z,26.08
2018-06-02T03:41:47.480Z,26.08
2018-06-02T03:42:47.541Z,26.10
2018-06-02T03:43:47.536Z,26.10
2018-06-02T03:44:47.563Z,26.15
2018-06-02T03:45:47.592Z,26.11
2018-06-02T03:46:47.623Z,26.06
2018-06-02T03:47:47.649Z,26.11
2018-06-02T03:48:47.676Z,26.15
2018-06-02T03:49:47.707Z,26.13
2018-06-02T03:50:47.732Z,26.10
2018-06-02T03:51:47.760Z,26.15
2018-06-02T03:52:47.793Z,26.23
2018-06-02T03:53:47.815Z,26.27
2018-06-02T03:54:47.862Z,26.15
2018-06-02T03:55:47.872Z,26.26
2018-06-02T03:56:47.900Z,26.34
2018-06-02T03:57:47.928Z,26.26
2018-06-02T03:58:47.957Z,26.33
2018-06-02T03:59:47.985Z,26.30
2018-06-02T04:00:48.012Z,26.34
2018-06-02T04:01:48.074Z,26.39
2018-06-02T04:02:48.069Z,26.44
2018-06-02T04:03:48.138Z,26.39
2018-06-02T04:04:48.124Z,26.46
2018-06-02T04:05:48.152Z,26.46
2018-06-02T04:06:48.184Z,26.45
2018-06-02T04:07:48.228Z,26.48
2018-06-02T04:08:48.236Z,26.52
2018-06-02T04:09:48.264Z,26.48
2018-06-02T04:10:48.293Z,26.53
2018-06-02T04:11:48.321Z,26.55
2018-06-02T04:12:48.348Z,26.52
2018-06-02T04:13:48.377Z,26.56
2018-06-02T04:14:48.407Z,26.61
2018-06-02T04:15:48.478Z,26.67
2018-06-02T04:16:48.461Z,26.70
2018-06-02T04:17:48.520Z,26.71
2018-06-02T04:18:48.517Z,26.79
2018-06-02T04:19:48.545Z,26.78
2018-06-02T04:20:48.579Z,26.79
2018-06-02T04:21:48.601Z,26.82
2018-06-02T04:22:48.630Z,26.83
2018-06-02T04:23:48.699Z,26.85
2018-06-02T04:24:48.685Z,26.79
2018-06-02T04:25:48.714Z,26.83
2018-06-02T04:26:48.743Z,26.82
2018-06-02T04:27:48.783Z,26.78
2018-06-02T04:28:48.798Z,26.81
2018-06-02T04:29:48.827Z,26.74
2018-06-02T04:30:48.855Z,26.70
2018-06-02T04:31:48.883Z,26.76
2018-06-02T04:32:48.912Z,26.71
2018-06-02T04:33:48.940Z,26.74
2018-06-02T04:34:48.968Z,26.76
2018-06-02T04:35:48.999Z,26.74
2018-06-02T04:36:49.024Z,26.76
2018-06-02T04:37:49.075Z,26.85
2018-06-02T04:38:49.082Z,26.76
2018-06-02T04:39:49.109Z,26.76
2018-06-02T04:40:49.137Z,26.85
2018-06-02T04:41:49.193Z,26.83
2018-06-02T04:42:49.194Z,26.78
2018-06-02T04:43:49.223Z,26.74
2018-06-02T04:44:49.250Z,26.76
2018-06-02T04:45:49.317Z,26.78
2018-06-02T04:46:49.307Z,26.81
2018-06-02T04:47:49.335Z,26.82
2018-06-02T04:48:49.363Z,26.71
2018-06-02T04:49:49.391Z,26.74
2018-06-02T04:50:49.420Z,26.76
2018-06-02T04:51:49.448Z,26.68
2018-06-02T04:52:49.477Z,26.63
2018-06-02T04:53:49.504Z,26.63
2018-06-02T04:54:49.535Z,26.63
2018-06-02T04:55:49.561Z,26.56
2018-06-02T04:56:49.611Z,26.55
2018-06-02T04:57:49.618Z,26.51
2018-06-02T04:58:49.645Z,26.49
2018-06-02T04:59:49.674Z,26.41
2018-06-02T05:00:49.701Z,26.39
2018-06-02T05:01:49.730Z,26.29
2018-06-02T05:02:49.759Z,26.19
2018-06-02T05:03:49.803Z,26.19
2018-06-02T05:04:49.845Z,26.22
2018-06-02T05:05:49.843Z,26.18
2018-06-02T05:06:49.871Z,26.26
2018-06-02T05:07:49.899Z,26.29
2018-06-02T05:08:49.927Z,26.26
2018-06-02T05:09:49.955Z,26.29
2018-06-02T05:10:49.983Z,26.26
2018-06-02T05:11:50.013Z,26.18
2018-06-02T05:12:50.043Z,26.23
2018-06-02T05:13:50.068Z,26.22
2018-06-02T05:14:50.097Z,26.22
2018-06-02T05:15:50.126Z,26.27
2018-06-02T05:16:50.154Z,26.29
2018-06-02T05:17:50.181Z,26.15
2018-06-02T05:18:50.210Z,26.24
2018-06-02T05:19:50.238Z,26.31
2018-06-02T05:20:50.269Z,26.36
2018-06-02T05:21:50.293Z,26.27
2018-06-02T05:22:50.322Z,26.33
2018-06-02T05:23:50.353Z,26.30
2018-06-02T05:24:50.377Z,26.30
2018-06-02T05:25:50.405Z,26.39
2018-06-02T05:26:50.435Z,26.37
2018-06-02T05:27:50.473Z,26.37
2018-06-02T05:28:50.490Z,26.41
2018-06-02T05:29:50.519Z,26.39
2018-06-02T05:30:50.549Z,26.42
2018-06-02T05:31:50.575Z,26.44
2018-06-02T05:32:50.603Z,26.45
2018-06-02T05:33:50.668Z,26.39
2018-06-02T05:34:50.660Z,26.46
2018-06-02T05:35:50.691Z,26.51
2018-06-02T05:36:50.716Z,26.51
2018-06-02T05:37:50.743Z,26.42
2018-06-02T05:38:50.772Z,26.51
2018-06-02T05:39:50.801Z,26.39
2018-06-02T05:40:50.832Z,26.37
2018-06-02T05:41:50.859Z,26.29
2018-06-02T05:42:50.887Z,26.24
2018-06-02T05:43:50.954Z,26.36
2018-06-02T05:44:50.944Z,26.29
2018-06-02T05:45:51.011Z,26.30
2018-06-02T05:46:50.997Z,26.31
2018-06-02T05:47:51.026Z,26.27
2018-06-02T05:48:51.055Z,26.33
2018-06-02T05:49:51.082Z,26.29
2018-06-02T05:50:51.109Z,26.30
2018-06-02T05:51:51.149Z,26.27
2018-06-02T05:52:51.166Z,26.31
2018-06-02T05:53:51.194Z,26.31
2018-06-02T05:54:51.222Z,26.30
2018-06-02T05:55:51.251Z,26.36
2018-06-02T05:56:51.279Z,26.29
2018-06-02T05:57:51.313Z,26.34
2018-06-02T05:58:51.335Z,26.42
2018-06-02T05:59:51.366Z,26.41
2018-06-02T06:00:51.390Z,26.45
2018-06-02T06:01:51.419Z,26.42
2018-06-02T06:02:51.447Z,26.46
2018-06-02T06:03:51.478Z,26.49
2018-06-02T06:04:51.503Z,26.52
2018-06-02T06:05:51.535Z,26.46
2018-06-02T06:06:51.564Z,26.48
2018-06-02T06:07:51.589Z,26.48
2018-06-02T06:08:51.616Z,26.51
2018-06-02T06:09:51.648Z,26.53
2018-06-02T06:10:51.673Z,26.51
2018-06-02T06:11:51.701Z,26.52
2018-06-02T06:12:51.730Z,26.44
2018-06-02T06:13:51.784Z,26.55
2018-06-02T06:14:51.786Z,26.59
2018-06-02T06:15:51.814Z,26.52
2018-06-02T06:16:51.841Z,26.52
2018-06-02T06:17:51.869Z,26.49
2018-06-02T06:18:51.898Z,26.53
2018-06-02T06:19:51.934Z,26.53
2018-06-02T06:20:51.954Z,26.56
2018-06-02T06:21:51.983Z,26.53
2018-06-02T06:22:52.012Z,26.49
2018-06-02T06:23:52.040Z,26.56
2018-06-02T06:24:52.067Z,26.53
2018-06-02T06:25:52.096Z,26.53
2018-06-02T06:26:52.169Z,26.52
2018-06-02T06:27:52.154Z,26.51
2018-06-02T06:28:52.181Z,26.51
2018-06-02T06:29:52.208Z,26.52
2018-06-02T06:30:52.236Z,26.52
2018-06-02T06:31:52.265Z,26.56
2018-06-02T06:32:52.293Z,26.53
2018-06-02T06:33:52.320Z,26.52
2018-06-02T06:34:52.353Z,26.49
2018-06-02T06:35:52.378Z,26.51
2018-06-02T06:36:52.405Z,26.52
2018-06-02T06:37:52.434Z,26.53
2018-06-02T06:38:52.488Z,26.52
2018-06-02T06:39:52.490Z,26.45
2018-06-02T06:40:52.524Z,26.52
2018-06-02T06:41:52.547Z,26.48
2018-06-02T06:42:52.575Z,26.49
2018-06-02T06:43:52.604Z,26.46
2018-06-02T06:44:52.662Z,26.56
2018-06-02T06:45:52.699Z,26.48
2018-06-02T06:46:52.688Z,26.48
2018-06-02T06:47:52.715Z,26.49
2018-06-02T06:48:52.743Z,26.45
2018-06-02T06:49:52.802Z,26.49
2018-06-02T06:50:52.801Z,26.46
2018-06-02T06:51:52.829Z,26.48
2018-06-02T06:52:52.857Z,26.51
2018-06-02T06:53:52.885Z,26.48
2018-06-02T06:54:52.914Z,26.49
2018-06-02T06:55:52.942Z,26.51
2018-06-02T06:56:52.997Z,26.45
2018-06-02T06:57:52.998Z,26.49
2018-06-02T06:58:53.027Z,26.37
2018-06-02T06:59:53.059Z,26.44
2018-06-02T07:00:53.082Z,26.46
2018-06-02T07:01:53.112Z,26.44
2018-06-02T07:02:53.139Z,26.51
2018-06-02T07:03:53.168Z,26.42
2018-06-02T07:04:53.195Z,26.36
2018-06-02T07:05:53.227Z,26.48
2018-06-02T07:06:53.254Z,26.49
2018-06-02T07:07:53.304Z,26.45
2018-06-02T07:08:53.320Z,26.41
2018-06-02T07:09:53.336Z,26.48
2018-06-02T07:10:53.365Z,26.45
2018-06-02T07:11:53.510Z,26.48
2018-06-02T07:12:53.421Z,26.48
2018-06-02T07:13:53.449Z,26.44
2018-06-02T07:14:53.478Z,26.41
2018-06-02T07:15:53.507Z,26.44
2018-06-02T07:16:53.538Z,26.51
2018-06-02T07:17:53.610Z,26.52
2018-06-02T07:18:53.592Z,26.44
2018-06-02T07:19:53.618Z,26.48
2018-06-02T07:20:53.650Z,26.51
2018-06-02T07:21:53.678Z,26.52
2018-06-02T07:22:53.703Z,26.51
2018-06-02T07:23:53.731Z,26.51
2018-06-02T07:24:53.787Z,26.48
2018-06-02T07:25:53.787Z,26.53
2018-06-02T07:26:53.816Z,26.45
2018-06-02T07:27:53.844Z,26.49
2018-06-02T07:28:53.872Z,26.49
2018-06-02T07:29:53.904Z,26.48
2018-06-02T07:30:53.942Z,26.46
2018-06-02T07:31:53.958Z,26.52
2018-06-02T07:32:53.985Z,26.44
2018-06-02T07:33:54.013Z,26.51
2018-06-02T07:34:54.045Z,26.46
2018-06-02T07:35:54.070Z,26.41
2018-06-02T07:36:54.151Z,26.48
2018-06-02T07:37:54.127Z,26.45
2018-06-02T07:38:54.171Z,26.48
2018-06-02T07:39:54.189Z,26.45
2018-06-02T07:40:54.211Z,26.46
2018-06-02T07:41:54.247Z,26.46
2018-06-02T07:42:54.267Z,26.48
2018-06-02T07:43:54.296Z,26.53
2018-06-02T07:44:54.356Z,26.49
2018-06-02T07:45:54.351Z,26.45
2018-06-02T07:46:54.380Z,26.51
2018-06-02T07:47:54.410Z,26.45
2018-06-02T07:48:54.436Z,26.51
2018-06-02T07:49:54.547Z,26.48
2018-06-02T07:50:54.493Z,26.48
2018-06-02T07:51:54.521Z,26.49
2018-06-02T07:52:54.549Z,26.51
2018-06-02T07:53:54.577Z,26.52
2018-06-02T07:54:54.606Z,26.49
2018-06-02T07:55:54.634Z,26.51
2018-06-02T07:56:54.662Z,26.49
2018-06-02T07:57:54.690Z,26.49
2018-06-02T07:58:54.719Z,26.48
2018-06-02T07:59:54.748Z,26.49
2018-06-02T08:00:54.775Z,26.46
2018-06-02T08:01:54.808Z,26.53
2018-06-02T08:02:54.832Z,26.44
2018-06-02T08:03:54.876Z,26.49
2018-06-02T08:04:54.887Z,26.52
2018-06-02T08:05:54.916Z,26.53
2018-06-02T08:06:54.981Z,26.51
2018-06-02T08:07:54.975Z,26.48
2018-06-02T08:08:55.001Z,26.44
2018-06-02T08:09:55.031Z,26.44
2018-06-02T08:10:55.058Z,26.39
2018-06-02T08:11:55.086Z,26.41
2018-06-02T08:12:55.114Z,26.44
2018-06-02T08:13:55.184Z,26.48
2018-06-02T08:14:55.171Z,26.37
2018-06-02T08:15:55.200Z,26.46
2018-06-02T08:16:55.226Z,26.44
2018-06-02T08:17:55.255Z,26.41
2018-06-02T08:18:55.283Z,26.39
2018-06-02T08:19:55.314Z,26.36
2018-06-02T08:20:55.341Z,26.45
2018-06-02T08:21:55.367Z,26.39
2018-06-02T08:22:55.396Z,26.37
2018-06-02T08:23:55.427Z,26.36
2018-06-02T08:24:55.453Z,26.41
2018-06-02T08:25:55.483Z,26.36
2018-06-02T08:26:55.509Z,26.41
2018-06-02T08:27:55.538Z,26.48
2018-06-02T08:28:55.565Z,26.52
2018-06-02T08:29:55.594Z,26.52
2018-06-02T08:30:55.662Z,26.53
2018-06-02T08:31:55.651Z,26.52
2018-06-02T08:32:55.678Z,26.59
2018-06-02T08:33:55.706Z,26.56
2018-06-02T08:34:55.735Z,26.59
2018-06-02T08:35:55.762Z,26.63
2018-06-02T08:36:55.826Z,26.68
2018-06-02T08:37:55.820Z,26.71
2018-06-02T08:38:55.869Z,26.73
2018-06-02T08:39:55.875Z,26.67
2018-06-02T08:40:55.904Z,26.82
2018-06-02T08:41:55.932Z,26.82
2018-06-02T08:42:55.964Z,26.81
2018-06-02T08:43:56.037Z,26.92
2018-06-02T08:44:56.017Z,26.92
2018-06-02T08:45:56.044Z,26.93
2018-06-02T08:46:56.075Z,26.98
2018-06-02T08:47:56.108Z,26.86
2018-06-02T08:48:56.163Z,26.91
2018-06-02T08:49:56.160Z,26.98
2018-06-02T08:50:56.186Z,27.00
2018-06-02T08:51:56.216Z,26.91
2018-06-02T08:52:56.244Z,27.00
2018-06-02T08:53:56.272Z,26.98
2018-06-02T08:54:56.299Z,27.10
2018-06-02T08:55:56.328Z,26.98
2018-06-02T08:56:56.383Z,27.00
2018-06-02T08:57:56.385Z,27.13
2018-06-02T08:58:56.413Z,27.08
2018-06-02T08:59:56.442Z,27.15
2018-06-02T09:00:56.482Z,27.11
2018-06-02T09:01:56.498Z,27.16
2018-06-02T09:02:56.527Z,27.07
2018-06-02T09:03:56.557Z,27.16
2018-06-02T09:04:56.585Z,27.10
2018-06-02T09:05:56.611Z,27.13
2018-06-02T09:06:56.640Z,27.11
2018-06-02T09:07:56.670Z,27.22
2018-06-02T09:08:56.697Z,27.22
2018-06-02T09:09:56.725Z,27.20
2018-06-02T09:10:56.755Z,27.20
2018-06-02T09:11:56.783Z,27.19
2018-06-02T09:12:56.811Z,27.26
2018-06-02T09:13:56.840Z,27.28
2018-06-02T09:14:56.868Z,27.20
2018-06-02T09:15:56.899Z,27.18
2018-06-02T09:16:56.927Z,27.20
2018-06-02T09:17:56.953Z,27.25
2018-06-02T09:18:57.008Z,27.25
2018-06-02T09:19:57.011Z,27.28
2018-06-02T09:20:57.039Z,27.22
2018-06-02T09:21:57.069Z,27.19
2018-06-02T09:22:57.096Z,27.19
2018-06-02T09:23:57.125Z,27.15
2018-06-02T09:24:57.155Z,27.29
2018-06-02T09:25:57.182Z,27.28
2018-06-02T09:26:57.209Z,27.26
2018-06-02T09:27:57.327Z,27.13
2018-06-02T09:28:57.266Z,27.23
2018-06-02T09:29:57.295Z,27.26
2018-06-02T09:30:57.324Z,27.11
2018-06-02T09:31:57.352Z,27.25
2018-06-02T09:32:57.385Z,27.08
2018-06-02T09:33:57.409Z,27.20
2018-06-02T09:34:57.451Z,27.22
2018-06-02T09:35:57.467Z,27.20
2018-06-02T09:36:57.530Z,27.15
2018-06-02T09:37:57.523Z,27.10
2018-06-02T09:38:57.551Z,27.19
2018-06-02T09:39:57.611Z,27.13
2018-06-02T09:40:57.632Z,27.10
2018-06-02T09:41:57.638Z,27.13
2018-06-02T09:42:57.665Z,27.18
2018-06-02T09:43:57.695Z,27.11
2018-06-02T09:44:57.753Z,27.13
2018-06-02T09:45:57.765Z,27.10
2018-06-02T09:46:57.781Z,27.22
2018-06-02T09:47:57.814Z,27.13
2018-06-02T09:48:57.843Z,27.11
2018-06-02T09:49:57.866Z,27.13
2018-06-02T09:50:57.895Z,27.13
2018-06-02T09:51:57.923Z,27.11
2018-06-02T09:52:57.951Z,27.01
2018-06-02T09:53:57.980Z,27.10
2018-06-02T09:54:58.009Z,27.01
2018-06-02T09:55:58.070Z,27.15
2018-06-02T09:56:58.065Z,27.01
2018-06-02T09:57:58.094Z,27.04
2018-06-02T09:58:58.123Z,27.10
2018-06-02T09:59:58.165Z,27.03
2018-06-02T10:00:58.200Z,27.05
2018-06-02T10:01:58.215Z,27.05
2018-06-02T10:02:58.237Z,27.07
2018-06-02T10:03:58.266Z,27.01
2018-06-02T10:04:58.292Z,27.11
2018-06-02T10:05:58.341Z,27.05
2018-06-02T10:06:58.382Z,27.08
2018-06-02T10:07:58.379Z,26.98
2018-06-02T10:08:58.437Z,27.10
2018-06-02T10:09:58.436Z,27.04
2018-06-02T10:10:58.471Z,27.07
2018-06-02T10:11:58.494Z,27.07
2018-06-02T10:12:58.535Z,27.04
2018-06-02T10:13:58.550Z,27.03
2018-06-02T10:14:58.579Z,27.03
2018-06-02T10:15:58.608Z,26.96
2018-06-02T10:16:58.636Z,27.00
2018-06-02T10:17:58.665Z,27.00
2018-06-02T10:18:58.693Z,26.98
2018-06-02T10:19:58.722Z,26.93
2018-06-02T10:20:58.749Z,27.00
2018-06-02T10:21:58.778Z,26.97
2018-06-02T10:22:58.807Z,26.92
2018-06-02T10:23:58.841Z,26.96
2018-06-02T10:24:58.864Z,26.96
2018-06-02T10:25:58.893Z,26.92
2018-06-02T10:26:58.921Z,27.01
2018-06-02T10:27:58.949Z,27.00
2018-06-02T10:28:58.977Z,27.00
2018-06-02T10:29:59.006Z,26.93
2018-06-02T10:30:59.053Z,26.97
2018-06-02T10:31:59.063Z,27.01
2018-06-02T10:32:59.092Z,26.93
2018-06-02T10:33:59.120Z,26.93
2018-06-02T10:34:59.148Z,26.98
2018-06-02T10:35:59.178Z,26.98
2018-06-02T10:36:59.206Z,26.93
2018-06-02T10:37:59.234Z,26.93
2018-06-02T10:38:59.288Z,27.03
2018-06-02T10:39:59.291Z,26.96
2018-06-02T10:40:59.318Z,26.97
2018-06-02T10:41:59.347Z,26.98
2018-06-02T10:42:59.377Z,26.91
2018-06-02T10:43:59.406Z,26.86
2018-06-02T10:44:59.433Z,27.00
2018-06-02T10:45:59.463Z,26.98
2018-06-02T10:46:59.491Z,26.96
2018-06-02T10:47:59.520Z,26.93
2018-06-02T10:48:59.551Z,26.92
2018-06-02T10:49:59.578Z,27.00
2018-06-02T10:50:59.605Z,27.03
2018-06-02T10:51:59.634Z,26.98
2018-06-02T10:52:59.661Z,26.98
2018-06-02T10:53:59.690Z,27.00
2018-06-02T10:54:59.718Z,26.91
2018-06-02T10:55:59.748Z,26.96
2018-06-02T10:56:59.775Z,27.01
2018-06-02T10:57:59.804Z,27.00
2018-06-02T10:58:59.834Z,27.01
2018-06-02T10:59:59.860Z,27.00
2018-06-02T11:00:59.891Z,26.96
2018-06-02T11:01:59.920Z,27.04
2018-06-02T11:02:59.950Z,26.98
2018-06-02T11:03:59.975Z,26.88
2018-06-02T11:05:00.003Z,26.92
2018-06-02T11:06:00.048Z,27.00
2018-06-02T11:07:00.060Z,26.96
2018-06-02T11:08:00.128Z,26.93
2018-06-02T11:09:00.128Z,26.98
2018-06-02T11:10:00.147Z,26.93
2018-06-02T11:11:00.174Z,27.03
2018-06-02T11:12:00.203Z,26.97
2018-06-02T11:13:00.233Z,27.04
2018-06-02T11:14:00.262Z,26.97
2018-06-02T11:15:00.292Z,27.01
2018-06-02T11:16:00.318Z,27.04
2018-06-02T11:17:00.350Z,27.07
2018-06-02T11:18:00.374Z,27.03
2018-06-02T11:19:00.472Z,27.13
2018-06-02T11:20:00.431Z,27.08
2018-06-02T11:21:00.458Z,27.07
2018-06-02T11:22:00.488Z,27.03
2018-06-02T11:23:00.543Z,26.97
2018-06-02T11:24:00.545Z,27.01
2018-06-02T11:25:00.573Z,27.05
2018-06-02T11:26:00.602Z,27.03
2018-06-02T11:27:00.631Z,27.07
2018-06-02T11:28:00.659Z,27.00
2018-06-02T11:29:00.694Z,27.03
2018-06-02T11:30:00.715Z,27.04
2018-06-02T11:31:00.744Z,27.01
2018-06-02T11:32:00.772Z,27.03
2018-06-02T11:33:00.800Z,27.03
2018-06-02T11:34:00.829Z,26.97
2018-06-02T11:35:00.858Z,27.03
2018-06-02T11:36:00.886Z,26.98
2018-06-02T11:37:00.914Z,27.07
2018-06-02T11:38:00.943Z,27.04
2018-06-02T11:39:00.971Z,27.04
2018-06-02T11:40:01.001Z,27.08
2018-06-02T11:41:01.063Z,27.13
2018-06-02T11:42:01.065Z,27.05
2018-06-02T11:43:01.111Z,27.07
2018-06-02T11:44:01.170Z,27.08
2018-06-02T11:45:01.142Z,27.05
2018-06-02T11:46:01.175Z,27.04
2018-06-02T11:47:01.200Z,27.00
2018-06-02T11:48:01.228Z,26.93
2018-06-02T11:49:01.257Z,27.04
2018-06-02T11:50:01.289Z,26.97
2018-06-02T11:51:01.351Z,27.13
2018-06-02T11:52:01.342Z,27.04
2018-06-02T11:53:01.375Z,27.04
2018-06-02T11:54:01.415Z,26.98
2018-06-02T11:55:01.428Z,26.98
2018-06-02T11:56:01.456Z,27.00
2018-06-02T11:57:01.485Z,26.98
2018-06-02T11:58:01.514Z,26.93
2018-06-02T11:59:01.573Z,26.92
2018-06-02T12:00:01.591Z,26.98
2018-06-02T12:01:01.652Z,26.92
2018-06-02T12:02:01.631Z,26.98
2018-06-02T12:03:01.656Z,27.00
2018-06-02T12:04:01.684Z,27.01
2018-06-02T12:05:01.713Z,26.93
2018-06-02T12:06:01.741Z,26.98
2018-06-02T12:07:01.826Z,26.91
2018-06-02T12:08:01.798Z,26.97
2018-06-02T12:09:01.826Z,26.89
2018-06-02T12:10:01.855Z,26.98
2018-06-02T12:11:01.884Z,27.00
2018-06-02T12:12:01.916Z,26.91
2018-06-02T12:13:01.942Z,27.01
2018-06-02T12:14:02.006Z,26.97
2018-06-02T12:15:01.998Z,26.93
2018-06-02T12:16:02.029Z,27.00
2018-06-02T12:17:02.054Z,27.00
2018-06-02T12:18:02.086Z,26.89
2018-06-02T12:19:02.112Z,26.91
2018-06-02T12:20:02.147Z,26.97
2018-06-02T12:21:02.168Z,26.98
2018-06-02T12:22:02.197Z,26.97
2018-06-02T12:23:02.228Z,27.01
2018-06-02T12:24:02.255Z,26.91
2018-06-02T12:25:02.283Z,26.91
2018-06-02T12:26:02.311Z,26.92
2018-06-02T12:27:02.376Z,26.98
2018-06-02T12:28:02.377Z,26.93
2018-06-02T12:29:02.396Z,27.04
2018-06-02T12:30:02.425Z,27.00
2018-06-02T12:31:02.453Z,27.00
2018-06-02T12:32:02.483Z,26.98
2018-06-02T12:33:02.510Z,26.98
2018-06-02T12:34:02.539Z,26.96
2018-06-02T12:35:02.575Z,26.98
2018-06-02T12:36:02.598Z,26.96
2018-06-02T12:37:02.626Z,26.97
2018-06-02T12:38:02.653Z,26.96
2018-06-02T12:39:02.705Z,27.00
2018-06-02T12:40:02.710Z,26.92
2018-06-02T12:41:02.738Z,26.97
2018-06-02T12:42:02.766Z,26.98
2018-06-02T12:43:02.796Z,27.00
2018-06-02T12:44:02.880Z,27.03
2018-06-02T12:45:02.852Z,26.97
2018-06-02T12:46:02.881Z,26.93
2018-06-02T12:47:02.910Z,27.04
2018-06-02T12:48:02.937Z,26.92
2018-06-02T12:49:02.965Z,27.04
2018-06-02T12:50:03.007Z,27.04
2018-06-02T12:51:03.024Z,27.01
2018-06-02T12:52:03.054Z,26.98
2018-06-02T12:53:03.124Z,27.01